createdAt,value
2023-03-26T00:01:06.315Z,10.34
2023-03-26T00:03:38.470Z,10.69
2023-03-26T00:06:13.226Z,10.89
2023-03-26T00:08:42.703Z,10.86
2023-03-26T00:11:31.882Z,10.75
2023-03-26T00:14:03.095Z,10.46
2023-03-26T00:16:33.026Z,10.47
2023-03-26T00:19:03.337Z,10.20
2023-03-26T00:24:30.106Z,10.15
2023-03-26T00:27:02.569Z,10.45
2023-03-26T00:29:33.408Z,10.28
2023-03-26T00:32:02.145Z,10.50
2023-03-26T00:34:34.814Z,9.99
2023-03-26T00:37:04.599Z,10.32
2023-03-26T00:39:38.317Z,10.00
2023-03-26T00:42:18.469Z,10.14
2023-03-26T00:44:51.535Z,10.11
2023-03-26T00:47:20.264Z,10.51
2023-03-26T00:49:49.567Z,9.93
2023-03-26T00:52:19.443Z,10.28
2023-03-26T00:54:56.416Z,10.09
2023-03-26T00:57:35.927Z,10.06
2023-03-26T01:00:16.207Z,9.50
2023-03-26T01:02:51.565Z,9.70
2023-03-26T01:05:53.374Z,9.46
2023-03-26T01:08:38.605Z,9.52
2023-03-26T01:11:14.295Z,9.22
2023-03-26T01:13:48.522Z,9.45
2023-03-26T01:16:25.902Z,9.85
2023-03-26T01:18:54.455Z,9.59
2023-03-26T01:21:29.317Z,9.43
2023-03-26T01:24:02.211Z,9.73
2023-03-26T01:26:39.681Z,9.87
2023-03-26T01:29:10.668Z,9.85
2023-03-26T01:31:47.745Z,9.58
2023-03-26T01:34:28.929Z,9.95
2023-03-26T01:37:01.504Z,9.99
2023-03-26T01:39:36.246Z,9.96
2023-03-26T01:42:08.600Z,9.99
2023-03-26T01:44:42.017Z,10.26
2023-03-26T01:47:11.506Z,9.97
2023-03-26T01:49:43.608Z,10.12
2023-03-26T01:52:19.134Z,9.91
2023-03-26T01:54:50.640Z,10.01
2023-03-26T01:57:25.851Z,10.69
2023-03-26T02:00:16.818Z,11.07
2023-03-26T02:02:55.332Z,10.79
2023-03-26T02:05:30.002Z,10.82
2023-03-26T02:08:17.074Z,10.84
2023-03-26T02:10:48.876Z,11.32
2023-03-26T02:13:17.648Z,10.76
2023-03-26T02:15:57.714Z,10.67
2023-03-26T02:18:36.760Z,11.13
2023-03-26T02:21:12.360Z,10.75
2023-03-26T02:23:48.605Z,11.00
2023-03-26T02:26:21.034Z,10.88
2023-03-26T02:28:56.792Z,10.66
2023-03-26T02:31:31.525Z,10.61
2023-03-26T02:34:02.761Z,10.98
2023-03-26T02:36:32.368Z,10.71
2023-03-26T02:39:02.228Z,10.84
2023-03-26T02:41:32.051Z,10.82
2023-03-26T02:44:02.795Z,11.03
2023-03-26T02:46:37.795Z,10.81
2023-03-26T02:49:07.356Z,10.93
2023-03-26T02:51:37.537Z,10.57
2023-03-26T02:54:11.898Z,11.05
2023-03-26T02:56:41.648Z,11.05
2023-03-26T02:59:19.220Z,10.83
2023-03-26T03:01:51.598Z,10.53
2023-03-26T03:04:21.310Z,10.46
2023-03-26T03:06:53.017Z,10.48
2023-03-26T03:09:24.707Z,10.70
2023-03-26T03:12:00.460Z,10.73
2023-03-26T03:14:33.520Z,10.41
2023-03-26T03:17:02.059Z,10.63
2023-03-26T03:19:35.156Z,10.44
2023-03-26T03:22:03.592Z,10.25
2023-03-26T03:24:34.371Z,10.30
2023-03-26T03:27:04.403Z,10.64
2023-03-26T03:29:33.500Z,10.97
2023-03-26T03:32:03.688Z,10.88
2023-03-26T03:34:33.853Z,11.11
2023-03-26T03:37:02.366Z,10.99
2023-03-26T03:39:33.637Z,11.21
2023-03-26T03:42:10.069Z,11.16
2023-03-26T03:44:40.956Z,11.14
2023-03-26T03:47:12.049Z,10.77
2023-03-26T03:49:40.327Z,10.73
2023-03-26T03:52:09.538Z,10.70
2023-03-26T03:54:38.755Z,10.62
2023-03-26T03:57:08.694Z,10.21
2023-03-26T03:59:48.044Z,10.43
2023-03-26T04:02:26.924Z,10.66
2023-03-26T04:04:58.138Z,9.53
2023-03-26T04:07:28.510Z,11.51
2023-03-26T04:10:01.260Z,11.34
2023-03-26T04:12:34.836Z,9.67
2023-03-26T04:15:05.023Z,11.20
2023-03-26T04:17:33.507Z,11.15
2023-03-26T04:20:10.313Z,11.28
2023-03-26T04:22:39.938Z,10.67
2023-03-26T04:25:17.066Z,11.29
2023-03-26T04:27:49.415Z,10.96
2023-03-26T04:30:22.459Z,11.12
2023-03-26T04:32:59.189Z,11.50
2023-03-26T04:35:30.651Z,11.66
2023-03-26T04:37:59.147Z,10.96
2023-03-26T04:40:30.706Z,10.96
2023-03-26T04:43:02.776Z,10.40
2023-03-26T04:45:31.829Z,10.84
2023-03-26T04:48:01.144Z,9.24
2023-03-26T04:50:32.615Z,10.43
2023-03-26T04:53:01.112Z,11.00
2023-03-26T04:55:33.738Z,10.75
2023-03-26T04:58:06.562Z,10.92
2023-03-26T05:00:39.142Z,11.02
2023-03-26T05:03:12.331Z,10.30
2023-03-26T05:05:42.051Z,10.66
2023-03-26T05:08:10.445Z,10.89
2023-03-26T05:10:41.159Z,10.76
2023-03-26T05:13:11.504Z,11.11
2023-03-26T05:15:39.481Z,10.57
2023-03-26T05:18:10.277Z,10.67
2023-03-26T05:20:38.528Z,10.88
2023-03-26T05:23:12.419Z,11.33
2023-03-26T05:25:40.130Z,11.32
2023-03-26T05:28:14.627Z,11.35
2023-03-26T05:30:44.795Z,11.56
2023-03-26T05:33:19.020Z,11.54
2023-03-26T05:35:49.451Z,11.73
2023-03-26T05:38:19.212Z,11.33
2023-03-26T05:40:47.237Z,11.03
2023-03-26T05:43:19.955Z,11.39
2023-03-26T05:45:50.098Z,11.50
2023-03-26T05:48:22.280Z,10.83
2023-03-26T05:50:55.018Z,11.27
2023-03-26T05:53:39.889Z,11.22
2023-03-26T05:56:08.710Z,11.50
2023-03-26T05:58:42.038Z,11.30
2023-03-26T06:01:16.992Z,11.45
2023-03-26T06:04:04.944Z,11.36
2023-03-26T06:06:33.354Z,11.62
2023-03-26T06:09:02.976Z,11.12
2023-03-26T06:11:34.007Z,11.13
2023-03-26T06:14:03.880Z,11.48
2023-03-26T06:16:32.311Z,11.97
2023-03-26T06:19:06.985Z,12.08
2023-03-26T06:21:37.611Z,11.87
2023-03-26T06:24:10.727Z,11.71
2023-03-26T06:26:39.872Z,11.45
2023-03-26T06:29:09.538Z,10.64
2023-03-26T06:31:42.675Z,10.45
2023-03-26T06:34:12.013Z,10.93
2023-03-26T06:36:43.142Z,11.01
2023-03-26T06:39:11.624Z,11.33
2023-03-26T06:41:39.757Z,11.27
2023-03-26T06:44:11.690Z,11.41
2023-03-26T06:46:40.813Z,11.83
2023-03-26T06:49:12.339Z,11.90
2023-03-26T06:51:43.984Z,11.65
2023-03-26T06:54:13.734Z,11.40
2023-03-26T06:56:48.743Z,11.28
2023-03-26T06:59:20.839Z,11.48
2023-03-26T07:01:50.921Z,11.46
2023-03-26T07:04:21.417Z,11.48
2023-03-26T07:06:54.056Z,11.37
2023-03-26T07:09:26.539Z,11.10
2023-03-26T07:11:58.194Z,11.08
2023-03-26T07:14:31.768Z,10.70
2023-03-26T07:17:01.653Z,11.31
2023-03-26T07:19:31.330Z,9.01
2023-03-26T07:22:08.208Z,10.80
2023-03-26T07:24:38.660Z,11.60
2023-03-26T07:27:21.748Z,10.81
2023-03-26T07:29:56.892Z,11.76
2023-03-26T07:32:31.474Z,10.99
2023-03-26T07:35:05.220Z,10.85
2023-03-26T07:37:41.886Z,10.92
2023-03-26T07:40:29.998Z,11.07
2023-03-26T07:43:02.221Z,11.62
2023-03-26T07:45:39.961Z,11.33
2023-03-26T07:48:15.381Z,11.20
2023-03-26T07:50:45.440Z,11.02
2023-03-26T07:53:22.520Z,11.30
2023-03-26T07:55:56.940Z,10.87
2023-03-26T07:58:46.707Z,10.73
2023-03-26T08:01:20.691Z,10.98
2023-03-26T08:04:24.103Z,11.34
2023-03-26T08:06:57.859Z,11.05
2023-03-26T08:09:37.337Z,11.23
2023-03-26T08:12:11.258Z,11.84
2023-03-26T08:14:50.145Z,10.99
2023-03-26T08:17:25.493Z,11.70
2023-03-26T08:20:02.438Z,11.78
2023-03-26T08:22:40.528Z,11.88
2023-03-26T08:25:25.105Z,11.58
2023-03-26T08:28:14.242Z,11.53
2023-03-26T08:30:42.788Z,11.75
2023-03-26T08:33:17.957Z,11.77
2023-03-26T08:36:13.086Z,12.27
2023-03-26T08:38:45.676Z,12.40
2023-03-26T08:41:52.596Z,12.11
2023-03-26T08:44:56.171Z,12.51
2023-03-26T08:48:09.794Z,12.30
2023-03-26T08:51:07.748Z,12.13
2023-03-26T08:54:28.716Z,12.45
2023-03-26T08:57:09.477Z,12.09
2023-03-26T09:00:31.090Z,12.28
2023-03-26T09:03:38.521Z,12.04
2023-03-26T09:07:10.499Z,12.36
2023-03-26T09:10:09.217Z,12.46
2023-03-26T09:13:26.303Z,12.18
2023-03-26T09:16:37.987Z,12.09
2023-03-26T09:19:29.035Z,11.98
2023-03-26T09:22:26.776Z,12.43
2023-03-26T09:25:22.458Z,12.53
2023-03-26T09:28:05.369Z,12.03
2023-03-26T09:30:58.909Z,11.35
2023-03-26T09:33:50.607Z,11.87
2023-03-26T09:36:26.371Z,11.61
2023-03-26T09:38:56.702Z,12.03
2023-03-26T09:41:37.594Z,12.10
2023-03-26T09:44:46.752Z,11.87
2023-03-26T09:47:58.700Z,12.39
2023-03-26T09:50:37.681Z,12.62
2023-03-26T09:53:31.100Z,12.67
2023-03-26T09:56:12.046Z,12.82
2023-03-26T09:59:22.092Z,13.31
2023-03-26T10:01:56.652Z,12.86
2023-03-26T10:05:09.591Z,12.81
2023-03-26T10:08:12.529Z,12.32
2023-03-26T10:10:46.722Z,12.17
2023-03-26T10:13:25.756Z,12.11
2023-03-26T10:16:26.176Z,12.39
2023-03-26T10:19:08.657Z,11.91
2023-03-26T10:21:46.354Z,12.30
2023-03-26T10:24:46.907Z,12.25
2023-03-26T10:27:28.370Z,12.19
2023-03-26T10:30:16.548Z,11.96
2023-03-26T10:32:51.989Z,11.63
2023-03-26T10:35:29.820Z,11.66
2023-03-26T10:38:20.200Z,11.85
2023-03-26T10:41:05.655Z,11.78
2023-03-26T10:44:16.027Z,12.23
2023-03-26T10:47:08.809Z,12.08
2023-03-26T10:50:07.006Z,12.87
2023-03-26T10:52:42.755Z,12.22
2023-03-26T10:55:15.366Z,12.48
2023-03-26T10:57:47.642Z,12.46
2023-03-26T11:00:25.421Z,13.11
2023-03-26T11:03:25.815Z,11.37
2023-03-26T11:06:03.855Z,12.87
2023-03-26T11:08:44.790Z,12.90
2023-03-26T11:11:21.997Z,12.67
2023-03-26T11:13:57.722Z,12.57
2023-03-26T11:16:32.520Z,12.88
2023-03-26T11:19:05.598Z,13.49
2023-03-26T11:21:46.922Z,13.41
2023-03-26T11:24:47.659Z,13.40
2023-03-26T11:27:26.357Z,13.78
2023-03-26T11:30:08.962Z,14.16
2023-03-26T11:32:42.604Z,13.72
2023-03-26T11:35:40.923Z,12.69
2023-03-26T11:38:17.846Z,13.04
2023-03-26T11:40:51.965Z,12.80
2023-03-26T11:43:33.206Z,13.21
2023-03-26T11:46:03.280Z,13.33
2023-03-26T11:48:39.948Z,12.92
2023-03-26T11:51:16.916Z,12.96
2023-03-26T11:53:46.965Z,12.97
2023-03-26T11:56:23.873Z,11.37
2023-03-26T11:58:56.552Z,11.57
2023-03-26T12:01:33.883Z,11.58
2023-03-26T12:04:10.400Z,12.17
2023-03-26T12:06:40.049Z,12.39
2023-03-26T12:09:21.300Z,12.46
2023-03-26T12:11:53.227Z,12.95
2023-03-26T12:14:27.519Z,13.30
2023-03-26T12:17:05.448Z,13.22
2023-03-26T12:19:40.970Z,12.87
2023-03-26T12:22:29.909Z,12.51
2023-03-26T12:25:17.549Z,11.85
2023-03-26T12:27:46.863Z,11.90
2023-03-26T12:30:21.921Z,12.54
2023-03-26T12:32:54.746Z,12.74
2023-03-26T12:35:29.630Z,12.47
2023-03-26T12:38:16.482Z,13.28
2023-03-26T12:40:48.679Z,13.29
2023-03-26T12:44:47.212Z,12.68
2023-03-26T12:47:55.383Z,12.80
2023-03-26T12:49:14.729Z,13.57
2023-03-26T12:51:57.689Z,14.06
2023-03-26T12:54:44.226Z,13.90
2023-03-26T12:57:32.665Z,12.67
2023-03-26T13:00:31.665Z,13.12
2023-03-26T13:03:19.513Z,14.24
2023-03-26T13:06:10.518Z,14.49
2023-03-26T13:09:06.881Z,13.77
2023-03-26T13:11:48.721Z,13.60
2023-03-26T13:15:02.451Z,14.31
2023-03-26T13:17:36.664Z,15.33
2023-03-26T13:20:13.185Z,14.63
2023-03-26T13:23:02.410Z,14.89
2023-03-26T13:25:40.134Z,14.38
2023-03-26T13:28:20.982Z,14.63
2023-03-26T13:31:00.764Z,14.57
2023-03-26T13:33:42.234Z,14.14
2023-03-26T13:36:23.922Z,15.00
2023-03-26T13:39:05.039Z,14.60
2023-03-26T13:41:46.448Z,14.69
2023-03-26T13:44:29.518Z,13.87
2023-03-26T13:47:22.663Z,14.71
2023-03-26T13:49:58.719Z,14.69
2023-03-26T13:52:38.666Z,14.20
2023-03-26T13:55:20.875Z,12.90
2023-03-26T13:57:55.664Z,14.66
2023-03-26T14:00:29.628Z,14.57
2023-03-26T14:03:00.641Z,13.98
2023-03-26T14:05:37.626Z,14.05
2023-03-26T14:08:13.250Z,14.24
2023-03-26T14:10:52.853Z,13.92
2023-03-26T14:13:25.195Z,13.42
2023-03-26T14:15:56.263Z,13.28
2023-03-26T14:18:34.369Z,12.43
2023-03-26T14:21:24.968Z,12.28
2023-03-26T14:24:12.895Z,11.65
2023-03-26T14:27:11.514Z,11.38
2023-03-26T14:29:56.924Z,11.43
2023-03-26T14:32:54.483Z,11.32
2023-03-26T14:35:46.206Z,11.31
2023-03-26T14:38:47.020Z,10.88
2023-03-26T14:41:24.804Z,10.86
2023-03-26T14:44:47.692Z,10.47
2023-03-26T14:47:25.018Z,10.65
2023-03-26T14:50:28.899Z,10.14
2023-03-26T14:53:02.384Z,9.65
2023-03-26T14:55:49.691Z,10.21
2023-03-26T14:59:05.213Z,9.62
2023-03-26T15:02:00.426Z,8.91
2023-03-26T15:05:07.842Z,9.24
2023-03-26T15:08:13.582Z,9.31
2023-03-26T15:11:25.665Z,9.47
2023-03-26T15:14:48.438Z,9.21
2023-03-26T15:17:51.732Z,8.89
2023-03-26T15:20:59.253Z,9.19
2023-03-26T15:24:02.349Z,9.32
2023-03-26T15:27:18.173Z,8.94
2023-03-26T15:30:22.463Z,9.22
2023-03-26T15:33:37.104Z,9.30
2023-03-26T15:36:31.846Z,9.57
2023-03-26T15:39:58.575Z,9.01
2023-03-26T15:42:42.950Z,9.54
2023-03-26T15:45:44.314Z,9.47
2023-03-26T15:48:38.277Z,9.36
2023-03-26T15:51:20.303Z,9.42
2023-03-26T15:54:02.116Z,9.20
2023-03-26T15:56:51.090Z,9.39
2023-03-26T16:02:41.657Z,9.39
2023-03-26T16:05:32.677Z,8.73
2023-03-26T16:08:12.139Z,9.50
2023-03-26T16:10:49.581Z,9.31
2023-03-26T16:13:43.928Z,9.24
2023-03-26T16:16:42.863Z,9.38
2023-03-26T16:19:38.580Z,9.08
2023-03-26T16:22:08.523Z,9.59
2023-03-26T16:24:41.178Z,9.45
2023-03-26T16:27:28.040Z,9.76
2023-03-26T16:30:30.721Z,9.56
2023-03-26T16:33:11.420Z,9.19
2023-03-26T16:36:14.243Z,9.22
2023-03-26T16:38:54.967Z,9.31
2023-03-26T16:41:37.730Z,9.17
2023-03-26T16:44:19.710Z,8.85
2023-03-26T16:47:00.782Z,8.85
2023-03-26T16:49:39.744Z,9.10
2023-03-26T16:52:25.659Z,8.65
2023-03-26T16:55:01.771Z,8.90
2023-03-26T16:57:31.275Z,8.80
2023-03-26T17:00:21.309Z,8.84
2023-03-26T17:03:00.095Z,8.95
2023-03-26T17:05:37.197Z,8.97
2023-03-26T17:08:17.532Z,9.14
2023-03-26T17:10:48.987Z,9.45
2023-03-26T17:13:23.336Z,9.12
2023-03-26T17:16:15.517Z,8.97
2023-03-26T17:18:54.949Z,9.23
2023-03-26T17:21:30.442Z,9.97
2023-03-26T17:24:29.018Z,9.21
2023-03-26T17:27:04.264Z,9.25
2023-03-26T17:29:43.773Z,9.35
2023-03-26T17:32:16.134Z,9.21
2023-03-26T17:34:57.822Z,9.29
2023-03-26T17:37:50.063Z,9.48
2023-03-26T17:40:47.729Z,9.32
2023-03-26T17:43:36.675Z,9.58
2023-03-26T17:46:09.576Z,9.55
2023-03-26T17:48:45.683Z,9.39
2023-03-26T17:51:25.017Z,9.44
2023-03-26T17:53:55.765Z,9.84
2023-03-26T17:56:33.010Z,9.69
2023-03-26T17:59:11.502Z,9.55
2023-03-26T18:01:45.125Z,9.31
2023-03-26T18:04:19.230Z,9.41
2023-03-26T18:07:22.340Z,10.02
2023-03-26T18:10:07.388Z,10.05
2023-03-26T18:12:59.644Z,10.23
2023-03-26T18:15:37.864Z,9.76
2023-03-26T18:18:13.605Z,9.99
2023-03-26T18:20:47.608Z,9.75
2023-03-26T18:23:30.360Z,9.69
2023-03-26T18:26:13.065Z,9.37
2023-03-26T18:28:50.592Z,9.74
2023-03-26T18:31:20.742Z,9.71
2023-03-26T18:33:50.008Z,9.75
2023-03-26T18:36:23.849Z,9.82
2023-03-26T18:38:58.174Z,9.67
2023-03-26T18:41:37.816Z,9.49
2023-03-26T18:44:18.018Z,9.27
2023-03-26T18:46:50.439Z,8.87
2023-03-26T18:49:24.309Z,8.89
2023-03-26T18:51:57.470Z,9.05
2023-03-26T18:54:38.696Z,9.39
2023-03-26T18:57:15.741Z,8.42
2023-03-26T18:59:55.313Z,8.95
2023-03-26T19:02:31.868Z,8.93
2023-03-26T19:05:03.891Z,9.00
2023-03-26T19:07:32.372Z,8.49
2023-03-26T19:10:07.019Z,8.50
2023-03-26T19:12:37.044Z,8.41
2023-03-26T19:15:09.102Z,8.65
2023-03-26T19:17:41.067Z,8.24
2023-03-26T19:20:18.032Z,8.54
2023-03-26T19:22:49.161Z,8.26
2023-03-26T19:25:24.288Z,8.12
2023-03-26T19:27:58.249Z,8.23
2023-03-26T19:30:35.489Z,8.59
2023-03-26T19:33:12.870Z,8.36
2023-03-26T19:35:44.202Z,8.53
2023-03-26T19:38:26.849Z,8.60
2023-03-26T19:41:01.776Z,8.41
2023-03-26T19:43:32.331Z,8.17
2023-03-26T19:46:05.421Z,8.52
2023-03-26T19:51:18.597Z,8.80
2023-03-26T19:51:33.685Z,8.39
2023-03-26T19:54:04.541Z,8.30
2023-03-26T19:56:34.136Z,8.30
2023-03-26T19:59:09.565Z,8.35
2023-03-26T20:01:39.426Z,7.99
2023-03-26T20:04:12.070Z,8.02
2023-03-26T20:06:44.228Z,7.96
2023-03-26T20:09:16.384Z,8.34
2023-03-26T20:11:47.611Z,8.49
2023-03-26T20:14:18.957Z,7.96
2023-03-26T20:16:54.257Z,8.34
2023-03-26T20:19:35.401Z,8.56
2023-03-26T20:22:07.970Z,8.48
2023-03-26T20:24:36.777Z,8.19
2023-03-26T20:27:18.172Z,8.35
2023-03-26T20:29:46.934Z,8.53
2023-03-26T20:32:34.751Z,8.18
2023-03-26T20:35:03.820Z,7.55
2023-03-26T20:37:42.408Z,7.91
2023-03-26T20:40:14.498Z,7.65
2023-03-26T20:42:48.057Z,7.85
2023-03-26T20:45:20.750Z,7.93
2023-03-26T20:47:51.439Z,7.89
2023-03-26T20:53:19.444Z,7.79
2023-03-26T20:55:51.076Z,6.86
2023-03-26T20:58:31.384Z,7.65
2023-03-26T21:01:01.908Z,7.67
2023-03-26T21:03:33.668Z,8.20
2023-03-26T21:06:05.976Z,8.08
2023-03-26T21:08:40.914Z,8.17
2023-03-26T21:11:26.856Z,8.03
2023-03-26T21:14:02.075Z,8.10
2023-03-26T21:16:30.956Z,7.89
2023-03-26T21:19:05.583Z,7.90
2023-03-26T21:21:46.258Z,7.99
2023-03-26T21:24:26.000Z,7.79
2023-03-26T21:27:05.676Z,7.82
2023-03-26T21:29:33.988Z,7.48
2023-03-26T21:32:06.292Z,8.19
2023-03-26T21:34:42.007Z,8.36
2023-03-26T21:37:13.810Z,8.35
2023-03-26T21:39:52.592Z,8.51
2023-03-26T21:42:21.612Z,8.40
2023-03-26T21:44:55.495Z,8.50
2023-03-26T21:47:27.800Z,8.48
2023-03-26T21:50:03.258Z,7.96
2023-03-26T21:52:32.628Z,8.27
2023-03-26T21:55:06.634Z,8.47
2023-03-26T21:57:58.563Z,8.29
2023-03-26T22:00:42.736Z,9.06
2023-03-26T22:03:22.685Z,8.95
2023-03-26T22:06:05.802Z,8.77
2023-03-26T22:08:42.222Z,8.71
2023-03-26T22:11:13.719Z,9.22
2023-03-26T22:13:44.014Z,8.85
2023-03-26T22:16:17.148Z,8.46
2023-03-26T22:18:48.958Z,8.69
2023-03-26T22:21:20.164Z,8.80
2023-03-26T22:23:52.736Z,8.73
2023-03-26T22:26:22.301Z,8.55
2023-03-26T22:28:53.775Z,8.96
2023-03-26T22:31:31.248Z,9.13
2023-03-26T22:34:00.597Z,8.77
2023-03-26T22:36:31.811Z,8.81
2023-03-26T22:39:01.651Z,8.39
2023-03-26T22:41:32.414Z,8.33
2023-03-26T22:44:16.735Z,8.87
2023-03-26T22:46:49.963Z,8.48
2023-03-26T22:49:20.629Z,8.71
2023-03-26T22:51:54.081Z,7.70
2023-03-26T22:54:25.163Z,7.89
2023-03-26T22:56:59.266Z,7.78
2023-03-26T22:59:28.424Z,8.32
2023-03-26T23:01:58.025Z,8.54
2023-03-26T23:04:31.413Z,8.57
2023-03-26T23:07:13.544Z,7.22
2023-03-26T23:09:46.635Z,7.95
2023-03-26T23:12:19.029Z,7.76
2023-03-26T23:14:56.111Z,7.76
2023-03-26T23:17:28.098Z,7.98
2023-03-26T23:19:56.509Z,7.93
2023-03-26T23:22:27.204Z,8.41
2023-03-26T23:24:58.702Z,7.26
2023-03-26T23:27:28.521Z,7.32
2023-03-26T23:29:59.489Z,7.34
2023-03-26T23:32:28.434Z,7.14
2023-03-26T23:34:57.265Z,7.32
2023-03-26T23:37:35.384Z,7.55
2023-03-26T23:40:08.798Z,7.26
2023-03-26T23:42:38.247Z,7.11
2023-03-26T23:45:17.514Z,6.67
2023-03-26T23:47:51.841Z,6.68
2023-03-26T23:50:21.078Z,6.53
2023-03-26T23:52:56.961Z,6.33
2023-03-26T23:55:29.387Z,6.55
2023-03-26T23:58:00.319Z,6.75
